createdAt,value
2018-02-09T00:01:59.660Z,61.50
2018-02-09T00:04:27.560Z,61.40
2018-02-09T00:06:55.464Z,61.40
2018-02-09T00:09:24.094Z,61.30
2018-02-09T00:11:52.066Z,61.30
2018-02-09T00:14:19.955Z,61.20
2018-02-09T00:16:47.828Z,61.20
2018-02-09T00:19:15.716Z,61.20
2018-02-09T00:21:44.373Z,61.40
2018-02-09T00:24:12.338Z,61.40
2018-02-09T00:26:40.308Z,61.40
2018-02-09T00:29:08.160Z,61.30
2018-02-09T00:31:36.121Z,61.30
2018-02-09T00:34:04.009Z,61.30
2018-02-09T00:36:31.878Z,61.30
2018-02-09T00:38:59.827Z,61.30
2018-02-09T00:41:27.817Z,61.20
2018-02-09T00:43:55.691Z,61.20
2018-02-09T00:46:23.544Z,61.30
2018-02-09T00:48:51.483Z,62.00
2018-02-09T00:51:19.354Z,61.20
2018-02-09T00:53:47.311Z,61.30
2018-02-09T00:56:15.223Z,61.40
2018-02-09T00:58:43.113Z,61.40
2018-02-09T01:01:11.832Z,61.50
2018-02-09T01:03:39.756Z,61.50
2018-02-09T01:06:08.393Z,62.20
2018-02-09T01:08:36.289Z,61.50
2018-02-09T01:11:04.243Z,61.50
2018-02-09T01:13:32.237Z,61.40
2018-02-09T01:16:00.189Z,61.40
2018-02-09T01:18:28.123Z,61.50
2018-02-09T01:20:56.004Z,61.50
2018-02-09T01:23:23.897Z,61.60
2018-02-09T01:25:51.773Z,61.60
2018-02-09T01:28:19.672Z,61.60
2018-02-09T01:30:47.620Z,61.70
2018-02-09T01:33:16.312Z,61.70
2018-02-09T01:35:44.988Z,61.70
2018-02-09T01:38:13.683Z,61.70
2018-02-09T01:40:42.337Z,61.70
2018-02-09T01:43:10.191Z,61.70
2018-02-09T01:45:38.104Z,61.70
2018-02-09T01:48:06.740Z,61.70
2018-02-09T01:50:34.710Z,61.70
2018-02-09T01:53:02.598Z,61.70
2018-02-09T01:55:30.594Z,61.70
2018-02-09T01:57:59.288Z,61.70
2018-02-09T02:00:27.230Z,61.70
2018-02-09T02:02:55.181Z,61.70
2018-02-09T02:05:23.118Z,61.70
2018-02-09T02:07:51.031Z,61.70
2018-02-09T02:10:18.957Z,61.70
2018-02-09T02:12:46.927Z,61.80
2018-02-09T02:15:14.876Z,61.70
2018-02-09T02:17:42.809Z,61.80
2018-02-09T02:20:11.521Z,62.00
2018-02-09T02:22:39.419Z,61.90
2018-02-09T02:25:07.343Z,61.90
2018-02-09T02:27:36.122Z,62.00
2018-02-09T02:30:04.957Z,62.00
2018-02-09T02:32:32.971Z,62.00
2018-02-09T02:35:00.898Z,62.00
2018-02-09T02:37:28.799Z,62.00
2018-02-09T02:39:56.703Z,62.10
2018-02-09T02:42:24.615Z,62.20
2018-02-09T02:44:52.523Z,62.20
2018-02-09T02:47:21.301Z,62.30
2018-02-09T02:49:50.053Z,62.40
2018-02-09T02:52:17.954Z,62.40
2018-02-09T02:54:46.637Z,62.70
2018-02-09T02:59:49.644Z,62.60
2018-02-09T03:02:18.311Z,62.90
2018-02-09T03:04:46.189Z,62.90
2018-02-09T03:07:14.100Z,63.00
2018-02-09T03:09:42.005Z,63.00
2018-02-09T03:12:09.931Z,63.10
2018-02-09T03:14:37.942Z,62.90
2018-02-09T03:17:05.874Z,63.00
2018-02-09T03:19:33.793Z,63.00
2018-02-09T03:22:01.762Z,63.00
2018-02-09T03:24:29.695Z,63.10
2018-02-09T03:26:57.562Z,63.00
2018-02-09T03:29:25.489Z,63.10
2018-02-09T03:31:53.422Z,63.10
2018-02-09T03:34:21.312Z,63.10
2018-02-09T03:36:49.996Z,63.20
2018-02-09T03:39:18.678Z,63.20
2018-02-09T03:41:47.447Z,63.20
2018-02-09T03:44:15.383Z,63.20
2018-02-09T03:46:43.371Z,63.20
2018-02-09T03:49:11.328Z,63.20
2018-02-09T03:51:39.229Z,63.20
2018-02-09T03:54:07.118Z,63.20
2018-02-09T03:56:35.875Z,63.20
2018-02-09T03:59:03.789Z,63.20
2018-02-09T04:01:31.786Z,63.20
2018-02-09T04:03:59.777Z,63.20
2018-02-09T04:06:27.746Z,63.20
2018-02-09T04:08:55.721Z,63.30
2018-02-09T04:11:23.612Z,63.20
2018-02-09T04:13:52.294Z,63.30
2018-02-09T04:16:20.986Z,63.30
2018-02-09T04:18:49.684Z,63.20
2018-02-09T04:21:17.757Z,63.30
2018-02-09T04:23:45.676Z,63.20
2018-02-09T04:26:13.594Z,63.20
2018-02-09T04:28:41.479Z,63.20
2018-02-09T04:31:09.352Z,63.20
2018-02-09T04:33:37.307Z,63.20
2018-02-09T04:36:05.172Z,63.20
2018-02-09T04:41:08.051Z,63.40
2018-02-09T04:43:36.281Z,63.40
2018-02-09T04:46:04.195Z,63.40
2018-02-09T04:48:32.118Z,63.40
2018-02-09T04:51:00.126Z,63.40
2018-02-09T04:53:28.829Z,63.50
2018-02-09T04:55:56.764Z,63.50
2018-02-09T04:58:25.470Z,63.50
2018-02-09T05:00:53.391Z,63.50
2018-02-09T05:03:21.425Z,63.60
2018-02-09T05:05:49.369Z,63.60
2018-02-09T05:08:18.058Z,63.60
2018-02-09T05:10:46.791Z,64.40
2018-02-09T05:13:14.735Z,63.70
2018-02-09T05:15:42.676Z,63.70
2018-02-09T05:18:11.383Z,63.90
2018-02-09T05:20:39.343Z,63.70
2018-02-09T05:23:07.374Z,63.70
2018-02-09T05:25:35.291Z,63.80
2018-02-09T05:28:03.231Z,63.90
2018-02-09T05:30:32.027Z,63.90
2018-02-09T05:33:00.763Z,63.90
2018-02-09T05:35:28.742Z,64.00
2018-02-09T05:37:56.739Z,63.90
2018-02-09T05:40:24.652Z,64.00
2018-02-09T05:42:52.602Z,64.10
2018-02-09T05:45:20.756Z,64.10
2018-02-09T05:47:49.503Z,64.30
2018-02-09T05:50:17.514Z,64.20
2018-02-09T05:52:46.177Z,64.40
2018-02-09T05:55:14.163Z,64.40
2018-02-09T05:57:42.911Z,64.50
2018-02-09T06:00:10.856Z,64.50
2018-02-09T06:02:38.848Z,64.60
2018-02-09T06:05:06.862Z,64.60
2018-02-09T06:07:35.615Z,64.80
2018-02-09T06:10:03.515Z,64.70
2018-02-09T06:12:32.278Z,64.70
2018-02-09T06:15:00.255Z,64.70
2018-02-09T06:17:28.281Z,64.80
2018-02-09T06:19:56.213Z,64.80
2018-02-09T06:22:24.897Z,64.80
2018-02-09T06:24:53.572Z,64.70
2018-02-09T06:27:22.265Z,64.80
2018-02-09T06:29:50.925Z,64.90
2018-02-09T06:32:18.943Z,64.90
2018-02-09T06:34:46.940Z,65.00
2018-02-09T06:37:14.816Z,65.10
2018-02-09T06:39:42.728Z,65.10
2018-02-09T06:42:11.422Z,65.10
2018-02-09T06:44:39.318Z,65.10
2018-02-09T06:47:07.338Z,65.10
2018-02-09T06:49:36.081Z,65.20
2018-02-09T06:52:04.118Z,65.20
2018-02-09T06:54:32.083Z,65.20
2018-02-09T06:57:00.000Z,65.20
2018-02-09T06:59:27.907Z,65.20
2018-02-09T07:01:56.591Z,65.30
2018-02-09T07:04:25.280Z,65.40
2018-02-09T07:06:53.960Z,65.40
2018-02-09T07:09:22.652Z,65.40
2018-02-09T07:11:51.337Z,65.50
2018-02-09T07:14:19.219Z,65.50
2018-02-09T07:16:47.136Z,65.50
2018-02-09T07:19:15.070Z,65.50
2018-02-09T07:21:43.049Z,65.50
2018-02-09T07:24:10.940Z,65.50
2018-02-09T07:26:38.830Z,65.50
2018-02-09T07:29:07.560Z,65.50
2018-02-09T07:31:35.572Z,65.40
2018-02-09T07:34:03.534Z,65.50
2018-02-09T07:36:31.543Z,65.40
2018-02-09T07:38:59.503Z,65.40
2018-02-09T07:41:28.176Z,65.40
2018-02-09T07:43:56.943Z,65.40
2018-02-09T07:46:24.915Z,65.50
2018-02-09T07:48:52.878Z,65.40
2018-02-09T07:51:20.856Z,65.30
2018-02-09T07:53:48.810Z,65.30
2018-02-09T07:56:16.851Z,65.40
2018-02-09T07:58:44.747Z,65.30
2018-02-09T08:01:12.682Z,65.40
2018-02-09T08:03:40.686Z,65.30
2018-02-09T08:06:08.607Z,65.30
2018-02-09T08:08:36.525Z,65.20
2018-02-09T08:11:04.510Z,65.10
2018-02-09T08:13:32.454Z,65.10
2018-02-09T08:16:00.514Z,65.00
2018-02-09T08:18:28.443Z,65.00
2018-02-09T08:20:56.360Z,64.80
2018-02-09T08:23:24.231Z,64.70
2018-02-09T08:25:52.228Z,64.60
2018-02-09T08:28:20.918Z,64.50
2018-02-09T08:30:49.585Z,64.40
2018-02-09T08:33:17.502Z,64.30
2018-02-09T08:35:45.415Z,63.50
2018-02-09T08:38:13.350Z,64.10
2018-02-09T08:40:41.348Z,63.90
2018-02-09T08:43:09.422Z,63.80
2018-02-09T08:45:37.375Z,63.50
2018-02-09T08:48:05.266Z,63.30
2018-02-09T08:50:33.211Z,63.00
2018-02-09T08:53:01.174Z,62.90
2018-02-09T08:55:29.139Z,62.90
2018-02-09T08:57:57.067Z,62.80
2018-02-09T09:00:25.006Z,62.80
2018-02-09T09:02:52.884Z,62.80
2018-02-09T09:05:21.571Z,62.80
2018-02-09T09:07:50.273Z,62.70
2018-02-09T09:10:18.222Z,62.60
2018-02-09T09:12:46.939Z,62.60
2018-02-09T09:15:14.976Z,62.50
2018-02-09T09:17:43.666Z,62.50
2018-02-09T09:20:12.351Z,62.40
2018-02-09T09:22:41.099Z,62.30
2018-02-09T09:25:09.030Z,62.30
2018-02-09T09:27:36.964Z,62.10
2018-02-09T09:30:05.681Z,62.40
2018-02-09T09:32:33.717Z,62.10
2018-02-09T09:35:02.510Z,62.60
2018-02-09T09:37:31.275Z,62.00
2018-02-09T09:39:59.201Z,62.00
2018-02-09T09:42:27.215Z,62.00
2018-02-09T09:44:55.135Z,60.80
2018-02-09T09:47:23.056Z,60.70
2018-02-09T09:49:50.960Z,60.60
2018-02-09T09:52:19.722Z,60.50
2018-02-09T09:54:47.723Z,60.40
2018-02-09T09:57:15.678Z,60.20
2018-02-09T09:59:44.460Z,59.60
2018-02-09T10:02:24.920Z,59.40
2018-02-09T10:04:53.613Z,59.30
2018-02-09T10:07:22.297Z,59.30
2018-02-09T10:09:51.016Z,59.10
2018-02-09T10:12:19.030Z,59.10
2018-02-09T10:14:46.923Z,58.80
2018-02-09T10:17:15.618Z,58.20
2018-02-09T10:19:43.566Z,58.20
2018-02-09T10:22:12.312Z,58.20
2018-02-09T10:24:40.241Z,58.20
2018-02-09T10:27:08.142Z,58.00
2018-02-09T10:29:36.092Z,58.00
2018-02-09T10:32:04.027Z,57.90
2018-02-09T10:34:32.722Z,58.00
2018-02-09T10:37:01.515Z,57.00
2018-02-09T10:39:29.394Z,57.00
2018-02-09T10:41:57.383Z,56.50
2018-02-09T10:44:25.346Z,56.20
2018-02-09T10:46:53.256Z,55.90
2018-02-09T10:49:21.191Z,55.70
2018-02-09T10:51:49.108Z,55.80
2018-02-09T10:54:17.850Z,55.70
2018-02-09T10:56:45.867Z,55.70
2018-02-09T10:59:14.608Z,55.30
2018-02-09T11:01:42.568Z,55.30
2018-02-09T11:04:10.494Z,55.20
2018-02-09T11:06:39.187Z,54.90
2018-02-09T11:09:07.196Z,54.80
2018-02-09T11:11:35.194Z,54.90
2018-02-09T11:14:03.087Z,54.80
2018-02-09T11:16:31.762Z,54.90
2018-02-09T11:19:00.566Z,54.80
2018-02-09T11:21:28.466Z,54.70
2018-02-09T11:23:56.490Z,54.50
2018-02-09T11:26:25.170Z,54.10
2018-02-09T11:28:53.977Z,54.00
2018-02-09T11:31:21.892Z,54.00
2018-02-09T11:33:49.814Z,54.10
2018-02-09T11:36:17.750Z,54.10
2018-02-09T11:38:45.635Z,54.20
2018-02-09T11:41:14.344Z,54.20
2018-02-09T11:43:42.265Z,54.10
2018-02-09T11:46:10.292Z,54.40
2018-02-09T11:48:38.250Z,54.90
2018-02-09T11:51:06.242Z,55.00
2018-02-09T11:53:34.234Z,55.00
2018-02-09T11:56:02.184Z,54.80
2018-02-09T11:58:30.172Z,54.80
2018-02-09T12:00:58.089Z,54.60
2018-02-09T12:03:25.986Z,54.10
2018-02-09T12:05:53.990Z,53.90
2018-02-09T12:08:21.929Z,53.60
2018-02-09T12:10:49.921Z,53.50
2018-02-09T12:13:17.849Z,52.60
2018-02-09T12:15:46.157Z,51.80
2018-02-09T12:18:14.101Z,52.10
2018-02-09T12:20:42.023Z,52.70
2018-02-09T12:25:44.914Z,51.80
2018-02-09T12:28:12.877Z,51.60
2018-02-09T12:30:40.822Z,51.20
2018-02-09T12:33:08.754Z,50.60
2018-02-09T12:35:36.766Z,49.50
2018-02-09T12:38:04.759Z,48.70
2018-02-09T12:40:33.435Z,47.60
2018-02-09T12:43:01.365Z,47.40
2018-02-09T12:45:29.410Z,46.90
2018-02-09T12:47:57.407Z,46.20
2018-02-09T12:50:25.330Z,45.70
2018-02-09T12:52:54.118Z,44.90
2018-02-09T12:55:22.751Z,44.50
2018-02-09T12:57:50.712Z,44.50
2018-02-09T13:00:18.624Z,44.20
2018-02-09T13:02:46.559Z,43.20
2018-02-09T13:05:14.511Z,43.20
2018-02-09T13:07:42.522Z,42.80
2018-02-09T13:10:10.554Z,43.20
2018-02-09T13:12:50.299Z,43.60
2018-02-09T13:15:18.273Z,44.20
2018-02-09T13:17:46.271Z,44.30
2018-02-09T13:20:14.167Z,44.10
2018-02-09T13:22:54.713Z,43.50
2018-02-09T13:25:22.688Z,43.50
2018-02-09T13:27:51.460Z,42.90
2018-02-09T13:30:19.408Z,42.70
2018-02-09T13:32:59.439Z,42.40
2018-02-09T13:35:27.563Z,41.70
2018-02-09T13:37:55.355Z,41.60
2018-02-09T13:40:23.295Z,41.60
2018-02-09T13:42:51.194Z,41.60
2018-02-09T13:45:19.368Z,41.30
2018-02-09T13:47:47.322Z,41.00
2018-02-09T13:50:16.073Z,41.00
2018-02-09T13:52:44.052Z,41.00
2018-02-09T13:55:11.990Z,41.20
2018-02-09T13:57:40.035Z,41.50
2018-02-09T14:00:07.948Z,41.50
2018-02-09T14:02:35.937Z,41.50
2018-02-09T14:05:04.641Z,42.20
2018-02-09T14:07:33.506Z,42.60
2018-02-09T14:10:01.535Z,42.70
2018-02-09T14:12:29.479Z,43.00
2018-02-09T14:14:57.427Z,43.50
2018-02-09T14:17:26.172Z,44.40
2018-02-09T14:19:54.071Z,44.40
2018-02-09T14:22:22.001Z,44.60
2018-02-09T14:24:50.239Z,45.00
2018-02-09T14:27:18.159Z,45.40
2018-02-09T14:29:46.194Z,45.80
2018-02-09T14:32:14.107Z,45.90
2018-02-09T14:34:42.022Z,46.30
2018-02-09T14:37:09.953Z,46.70
2018-02-09T14:39:37.830Z,46.80
2018-02-09T14:42:06.592Z,47.00
2018-02-09T14:44:34.537Z,46.90
2018-02-09T14:47:02.495Z,47.10
2018-02-09T14:49:30.473Z,47.30
2018-02-09T14:51:59.258Z,47.80
2018-02-09T14:54:27.184Z,47.80
2018-02-09T14:56:55.860Z,47.80
2018-02-09T14:59:24.539Z,48.10
2018-02-09T15:01:53.274Z,48.10
2018-02-09T15:04:21.282Z,48.10
2018-02-09T15:06:49.240Z,48.40
2018-02-09T15:09:17.138Z,48.60
2018-02-09T15:11:45.846Z,49.10
2018-02-09T15:14:13.744Z,49.00
2018-02-09T15:16:41.768Z,49.60
2018-02-09T15:19:10.431Z,49.60
2018-02-09T15:21:38.450Z,49.50
2018-02-09T15:24:06.402Z,49.40
2018-02-09T15:26:34.379Z,49.70
2018-02-09T15:29:02.324Z,50.00
2018-02-09T15:31:31.014Z,50.00
2018-02-09T15:33:59.730Z,49.90
2018-02-09T15:36:27.620Z,49.80
2018-02-09T15:38:55.567Z,49.80
2018-02-09T15:41:23.548Z,50.00
2018-02-09T15:43:51.471Z,50.20
2018-02-09T15:46:20.190Z,50.60
2018-02-09T15:48:48.222Z,50.60
2018-02-09T15:51:16.982Z,51.10
2018-02-09T15:53:44.964Z,51.10
2018-02-09T15:56:13.016Z,51.30
2018-02-09T15:58:40.923Z,51.40
2018-02-09T16:01:09.668Z,51.70
2018-02-09T16:03:37.590Z,51.70
2018-02-09T16:06:05.594Z,51.90
2018-02-09T16:08:33.761Z,52.10
2018-02-09T16:11:01.810Z,52.20
2018-02-09T16:13:29.727Z,52.40
2018-02-09T16:15:57.761Z,52.50
2018-02-09T16:18:25.845Z,52.70
2018-02-09T16:20:53.798Z,52.90
2018-02-09T16:23:21.755Z,53.10
2018-02-09T16:25:49.678Z,53.10
2018-02-09T16:28:17.672Z,53.40
2018-02-09T16:30:46.371Z,53.70
2018-02-09T16:33:14.375Z,53.70
2018-02-09T16:35:42.363Z,53.80
2018-02-09T16:38:10.247Z,54.00
2018-02-09T16:40:38.220Z,54.10
2018-02-09T16:43:06.920Z,55.00
2018-02-09T16:45:34.964Z,54.50
2018-02-09T16:48:02.945Z,54.80
2018-02-09T16:50:31.658Z,55.90
2018-02-09T16:52:59.699Z,55.90
2018-02-09T16:55:27.703Z,56.00
2018-02-09T16:57:55.649Z,56.00
2018-02-09T17:00:24.407Z,56.50
2018-02-09T17:02:52.386Z,56.60
2018-02-09T17:05:20.348Z,56.70
2018-02-09T17:07:48.258Z,56.80
2018-02-09T17:10:16.228Z,56.90
2018-02-09T17:12:44.306Z,57.10
2018-02-09T17:15:12.280Z,57.20
2018-02-09T17:17:40.296Z,57.30
2018-02-09T17:20:09.042Z,57.50
2018-02-09T17:22:36.978Z,57.60
2018-02-09T17:25:05.002Z,57.70
2018-02-09T17:27:32.933Z,58.00
2018-02-09T17:30:00.866Z,58.10
2018-02-09T17:32:29.634Z,58.40
2018-02-09T17:34:57.511Z,58.40
2018-02-09T17:37:25.525Z,58.40
2018-02-09T17:39:53.683Z,58.60
2018-02-09T17:42:21.692Z,58.80
2018-02-09T17:44:49.703Z,59.00
2018-02-09T17:47:18.621Z,59.10
2018-02-09T17:49:46.635Z,59.20
2018-02-09T17:52:15.379Z,59.50
2018-02-09T17:54:43.317Z,59.40
2018-02-09T17:57:12.064Z,60.10
2018-02-09T17:59:39.991Z,59.70
2018-02-09T18:02:08.769Z,60.00
2018-02-09T18:04:37.550Z,60.00
2018-02-09T18:07:06.204Z,60.10
2018-02-09T18:09:34.154Z,60.10
2018-02-09T18:12:02.080Z,60.20
2018-02-09T18:14:30.845Z,60.60
2018-02-09T18:16:58.982Z,60.50
2018-02-09T18:19:26.947Z,60.60
2018-02-09T18:21:54.918Z,60.80
2018-02-09T18:24:22.945Z,61.00
2018-02-09T18:26:51.715Z,61.30
2018-02-09T18:29:19.664Z,61.30
2018-02-09T18:31:47.679Z,61.40
2018-02-09T18:34:16.426Z,61.70
2018-02-09T18:36:45.071Z,61.70
2018-02-09T18:39:13.038Z,61.70
2018-02-09T18:41:41.110Z,61.90
2018-02-09T18:44:09.238Z,61.90
2018-02-09T18:46:38.147Z,61.90
2018-02-09T18:49:06.903Z,62.30
2018-02-09T18:51:36.990Z,62.20
2018-02-09T18:54:04.970Z,62.20
2018-02-09T18:56:32.906Z,62.30
2018-02-09T18:59:00.823Z,62.40
2018-02-09T19:01:28.824Z,62.40
2018-02-09T19:03:57.618Z,62.60
2018-02-09T19:06:26.308Z,62.60
2018-02-09T19:08:54.957Z,62.70
2018-02-09T19:11:22.864Z,62.70
2018-02-09T19:13:50.772Z,62.80
2018-02-09T19:16:18.648Z,62.90
2018-02-09T19:18:46.575Z,62.90
2018-02-09T19:21:14.452Z,63.60
2018-02-09T19:23:42.383Z,63.00
2018-02-09T19:26:10.331Z,63.00
2018-02-09T19:28:38.207Z,63.00
2018-02-09T19:31:06.306Z,63.00
2018-02-09T19:33:34.244Z,63.40
2018-02-09T19:36:02.237Z,63.30
2018-02-09T19:38:30.118Z,63.40
2018-02-09T19:40:58.102Z,63.50
2018-02-09T19:43:26.022Z,63.70
2018-02-09T19:45:53.942Z,63.90
2018-02-09T19:48:21.908Z,63.90
2018-02-09T19:50:49.881Z,63.80
2018-02-09T19:53:17.764Z,63.90
2018-02-09T19:55:45.678Z,63.80
2018-02-09T19:58:14.383Z,64.20
2018-02-09T20:00:42.388Z,64.10
2018-02-09T20:03:10.321Z,64.30
2018-02-09T20:05:38.275Z,64.40
2018-02-09T20:08:07.239Z,64.50
2018-02-09T20:10:36.026Z,64.40
2018-02-09T20:13:04.028Z,64.40
2018-02-09T20:15:32.114Z,64.30
2018-02-09T20:18:00.945Z,64.30
2018-02-09T20:20:30.958Z,64.40
2018-02-09T20:22:59.131Z,64.50
2018-02-09T20:25:28.871Z,64.60
2018-02-09T20:28:00.400Z,64.60
2018-02-09T20:30:32.417Z,64.60
2018-02-09T20:33:04.391Z,64.70
2018-02-09T20:35:38.112Z,64.80
2018-02-09T20:38:08.569Z,64.90
2018-02-09T20:40:38.990Z,64.90
2018-02-09T20:43:11.083Z,65.60
2018-02-09T20:45:42.732Z,65.10
2018-02-09T20:48:11.492Z,65.10
2018-02-09T20:50:43.014Z,65.30
2018-02-09T20:53:15.771Z,65.20
2018-02-09T20:55:46.837Z,65.20
2018-02-09T20:58:18.721Z,65.20
2018-02-09T21:00:53.980Z,65.10
2018-02-09T21:03:25.670Z,65.00
2018-02-09T21:05:57.169Z,65.10
2018-02-09T21:08:27.986Z,65.20
2018-02-09T21:10:59.780Z,65.10
2018-02-09T21:13:31.035Z,65.20
2018-02-09T21:16:03.977Z,65.20
2018-02-09T21:18:36.756Z,66.10
2018-02-09T21:21:07.781Z,65.40
2018-02-09T21:23:40.122Z,65.50
2018-02-09T21:26:11.179Z,65.30
2018-02-09T21:28:45.471Z,65.30
2018-02-09T21:31:22.637Z,65.30
2018-02-09T21:33:58.856Z,65.30
2018-02-09T21:36:30.797Z,65.30
2018-02-09T21:39:02.783Z,65.40
2018-02-09T21:41:38.550Z,65.40
2018-02-09T21:44:11.028Z,65.40
2018-02-09T21:46:42.886Z,65.30
2018-02-09T21:49:17.962Z,65.20
2018-02-09T21:51:49.509Z,65.20
2018-02-09T21:54:20.241Z,65.30
2018-02-09T21:56:51.109Z,65.30
2018-02-09T21:59:22.870Z,65.30
2018-02-09T22:01:55.145Z,65.10
2018-02-09T22:04:25.805Z,65.20
2018-02-09T22:06:59.226Z,65.40
2018-02-09T22:09:31.435Z,65.40
2018-02-09T22:12:03.558Z,65.40
2018-02-09T22:14:39.794Z,65.40
2018-02-09T22:17:12.985Z,65.30
2018-02-09T22:19:46.829Z,65.30
2018-02-09T22:22:20.714Z,65.30
2018-02-09T22:24:52.298Z,65.20
2018-02-09T22:27:24.800Z,65.10
2018-02-09T22:29:56.494Z,65.10
2018-02-09T22:32:29.970Z,65.20
2018-02-09T22:35:01.594Z,65.10
2018-02-09T22:37:35.918Z,65.10
2018-02-09T22:40:08.311Z,65.00
2018-02-09T22:42:40.991Z,65.10
2018-02-09T22:45:12.907Z,65.00
2018-02-09T22:47:47.251Z,65.00
2018-02-09T22:50:20.236Z,65.00
2018-02-09T22:52:51.494Z,64.90
2018-02-09T22:55:22.061Z,64.80
2018-02-09T22:57:53.355Z,64.90
2018-02-09T23:00:23.961Z,64.90
2018-02-09T23:02:57.403Z,64.90
2018-02-09T23:05:27.185Z,64.90
2018-02-09T23:07:57.461Z,64.80
2018-02-09T23:10:28.385Z,64.80
2018-02-09T23:13:02.048Z,64.80
2018-02-09T23:15:36.189Z,64.80
2018-02-09T23:18:08.756Z,64.80
2018-02-09T23:20:44.942Z,64.80
2018-02-09T23:23:15.746Z,64.80
2018-02-09T23:25:48.837Z,64.70
2018-02-09T23:28:19.784Z,64.70
2018-02-09T23:30:53.948Z,64.80
2018-02-09T23:33:26.693Z,64.70
2018-02-09T23:35:58.855Z,64.70
2018-02-09T23:38:33.971Z,64.80
2018-02-09T23:41:07.310Z,64.80
2018-02-09T23:43:42.009Z,64.90
2018-02-09T23:46:14.713Z,64.80
2018-02-09T23:48:48.435Z,64.80
2018-02-09T23:51:21.240Z,64.90
2018-02-09T23:53:50.459Z,64.80
2018-02-09T23:56:22.521Z,64.80
2018-02-09T23:58:54.567Z,64.90
